createdAt,value
2018-10-07T00:00:05.678Z,1003.90
2018-10-07T00:01:05.674Z,1003.92
2018-10-07T00:02:05.677Z,1003.90
2018-10-07T00:03:05.673Z,1003.91
2018-10-07T00:04:05.677Z,1003.89
2018-10-07T00:05:05.670Z,1003.87
2018-10-07T00:06:05.675Z,1003.88
2018-10-07T00:07:05.670Z,1003.86
2018-10-07T00:08:05.667Z,1003.89
2018-10-07T00:09:05.679Z,1003.93
2018-10-07T00:10:05.666Z,1003.94
2018-10-07T00:11:05.663Z,1003.92
2018-10-07T00:12:05.665Z,1003.95
2018-10-07T00:13:05.671Z,1003.93
2018-10-07T00:14:05.666Z,1003.91
2018-10-07T00:15:05.658Z,1003.95
2018-10-07T00:16:05.657Z,1003.90
2018-10-07T00:17:05.655Z,1003.90
2018-10-07T00:18:06.275Z,1003.89
2018-10-07T00:19:05.656Z,1003.90
2018-10-07T00:20:05.658Z,1003.85
2018-10-07T00:21:05.654Z,1003.82
2018-10-07T00:22:05.648Z,1003.83
2018-10-07T00:23:05.648Z,1003.84
2018-10-07T00:24:05.645Z,1003.86
2018-10-07T00:25:05.640Z,1003.83
2018-10-07T00:26:05.645Z,1003.82
2018-10-07T00:27:05.644Z,1003.82
2018-10-07T00:28:05.641Z,1003.79
2018-10-07T00:29:05.639Z,1003.80
2018-10-07T00:30:05.636Z,1003.80
2018-10-07T00:31:05.640Z,1003.79
2018-10-07T00:32:05.631Z,1003.78
2018-10-07T00:33:05.638Z,1003.81
2018-10-07T00:34:05.630Z,1003.80
2018-10-07T00:35:05.634Z,1003.79
2018-10-07T00:36:05.630Z,1003.80
2018-10-07T00:37:05.621Z,1003.78
2018-10-07T00:38:05.624Z,1003.76
2018-10-07T00:39:05.635Z,1003.77
2018-10-07T00:40:05.629Z,1003.79
2018-10-07T00:41:05.652Z,1003.78
2018-10-07T00:42:05.618Z,1003.76
2018-10-07T00:43:05.621Z,1003.78
2018-10-07T00:44:05.617Z,1003.81
2018-10-07T00:45:05.611Z,1003.77
2018-10-07T00:46:05.616Z,1003.78
2018-10-07T00:47:05.607Z,1003.78
2018-10-07T00:48:05.614Z,1003.74
2018-10-07T00:49:05.605Z,1003.81
2018-10-07T00:50:05.601Z,1003.77
2018-10-07T00:51:05.602Z,1003.77
2018-10-07T00:52:05.605Z,1003.82
2018-10-07T00:53:05.600Z,1003.78
2018-10-07T00:54:05.594Z,1003.82
2018-10-07T00:55:05.611Z,1003.86
2018-10-07T00:56:05.593Z,1003.83
2018-10-07T00:57:05.592Z,1003.83
2018-10-07T00:58:05.590Z,1003.86
2018-10-07T00:59:05.583Z,1003.82
2018-10-07T01:00:05.586Z,1003.82
2018-10-07T01:01:05.584Z,1003.80
2018-10-07T01:02:05.582Z,1003.80
2018-10-07T01:03:05.579Z,1003.81
2018-10-07T01:04:05.576Z,1003.79
2018-10-07T01:05:05.573Z,1003.77
2018-10-07T01:06:05.571Z,1003.79
2018-10-07T01:07:05.568Z,1003.76
2018-10-07T01:08:05.572Z,1003.75
2018-10-07T01:09:05.566Z,1003.78
2018-10-07T01:10:05.581Z,1003.73
2018-10-07T01:11:05.567Z,1003.74
2018-10-07T01:12:05.563Z,1003.73
2018-10-07T01:13:05.556Z,1003.69
2018-10-07T01:14:05.566Z,1003.70
2018-10-07T01:15:05.557Z,1003.66
2018-10-07T01:16:05.553Z,1003.67
2018-10-07T01:17:05.553Z,1003.67
2018-10-07T01:18:05.550Z,1003.68
2018-10-07T01:19:05.544Z,1003.68
2018-10-07T01:20:05.543Z,1003.70
2018-10-07T01:21:05.540Z,1003.69
2018-10-07T01:22:05.536Z,1003.69
2018-10-07T01:23:05.535Z,1003.71
2018-10-07T01:24:05.533Z,1003.70
2018-10-07T01:25:05.529Z,1003.72
2018-10-07T01:26:05.533Z,1003.67
2018-10-07T01:27:05.530Z,1003.69
2018-10-07T01:28:05.524Z,1003.68
2018-10-07T01:29:05.527Z,1003.68
2018-10-07T01:30:05.524Z,1003.72
2018-10-07T01:31:05.519Z,1003.71
2018-10-07T01:32:05.512Z,1003.71
2018-10-07T01:33:05.513Z,1003.74
2018-10-07T01:34:05.507Z,1003.75
2018-10-07T01:35:05.508Z,1003.76
2018-10-07T01:36:05.508Z,1003.76
2018-10-07T01:37:05.503Z,1003.78
2018-10-07T01:38:05.500Z,1003.76
2018-10-07T01:39:05.502Z,1003.75
2018-10-07T01:40:05.499Z,1003.74
2018-10-07T01:41:05.500Z,1003.75
2018-10-07T01:42:05.490Z,1003.73
2018-10-07T01:43:05.490Z,1003.75
2018-10-07T01:44:05.488Z,1003.72
2018-10-07T01:45:05.496Z,1003.68
2018-10-07T01:46:05.494Z,1003.71
2018-10-07T01:47:05.484Z,1003.73
2018-10-07T01:48:05.477Z,1003.71
2018-10-07T01:49:05.475Z,1003.76
2018-10-07T01:50:05.474Z,1003.75
2018-10-07T01:51:05.473Z,1003.75
2018-10-07T01:52:05.475Z,1003.78
2018-10-07T01:53:05.470Z,1003.79
2018-10-07T01:54:05.465Z,1003.74
2018-10-07T01:55:05.475Z,1003.75
2018-10-07T01:56:05.461Z,1003.75
2018-10-07T01:57:05.461Z,1003.80
2018-10-07T01:58:05.453Z,1003.76
2018-10-07T01:59:05.457Z,1003.77
2018-10-07T02:00:05.450Z,1003.80
2018-10-07T02:01:05.446Z,1003.83
2018-10-07T02:02:05.444Z,1003.82
2018-10-07T02:03:05.439Z,1003.84
2018-10-07T02:04:05.442Z,1003.86
2018-10-07T02:05:05.501Z,1003.81
2018-10-07T02:06:05.430Z,1003.82
2018-10-07T02:07:05.430Z,1003.82
2018-10-07T02:08:05.434Z,1003.82
2018-10-07T02:09:05.423Z,1003.82
2018-10-07T02:10:05.474Z,1003.85
2018-10-07T02:11:05.427Z,1003.84
2018-10-07T02:12:05.421Z,1003.88
2018-10-07T02:13:05.415Z,1003.88
2018-10-07T02:14:05.473Z,1003.87
2018-10-07T02:15:05.411Z,1003.90
2018-10-07T02:16:05.410Z,1003.87
2018-10-07T02:17:05.433Z,1003.86
2018-10-07T02:18:05.403Z,1003.88
2018-10-07T02:19:05.405Z,1003.90
2018-10-07T02:20:05.396Z,1003.93
2018-10-07T02:21:05.400Z,1003.92
2018-10-07T02:22:07.316Z,1003.95
2018-10-07T02:23:05.384Z,1003.92
2018-10-07T02:24:05.384Z,1003.94
2018-10-07T02:25:05.382Z,1003.93
2018-10-07T02:26:05.383Z,1003.95
2018-10-07T02:27:05.376Z,1003.99
2018-10-07T02:28:05.381Z,1003.97
2018-10-07T02:29:05.368Z,1003.98
2018-10-07T02:30:05.381Z,1003.99
2018-10-07T02:31:05.371Z,1003.98
2018-10-07T02:32:05.367Z,1003.97
2018-10-07T02:33:05.362Z,1004.03
2018-10-07T02:34:05.358Z,1004.02
2018-10-07T02:35:05.360Z,1004.05
2018-10-07T02:36:05.356Z,1004.05
2018-10-07T02:37:05.349Z,1004.05
2018-10-07T02:38:05.345Z,1004.11
2018-10-07T02:39:05.349Z,1004.11
2018-10-07T02:40:05.341Z,1004.10
2018-10-07T02:41:05.337Z,1004.13
2018-10-07T02:42:05.347Z,1004.11
2018-10-07T02:43:05.337Z,1004.15
2018-10-07T02:44:05.331Z,1004.16
2018-10-07T02:45:05.332Z,1004.22
2018-10-07T02:46:05.324Z,1004.23
2018-10-07T02:47:05.328Z,1004.21
2018-10-07T02:48:05.323Z,1004.23
2018-10-07T02:49:05.317Z,1004.20
2018-10-07T02:50:05.315Z,1004.21
2018-10-07T02:51:05.313Z,1004.24
2018-10-07T02:52:05.307Z,1004.27
2018-10-07T02:53:05.371Z,1004.31
2018-10-07T02:54:05.306Z,1004.32
2018-10-07T02:55:05.299Z,1004.31
2018-10-07T02:56:05.301Z,1004.27
2018-10-07T02:57:05.298Z,1004.28
2018-10-07T02:58:05.293Z,1004.27
2018-10-07T02:59:05.291Z,1004.26
2018-10-07T03:00:05.287Z,1004.20
2018-10-07T03:01:05.285Z,1004.21
2018-10-07T03:02:05.284Z,1004.22
2018-10-07T03:03:05.283Z,1004.28
2018-10-07T03:04:05.275Z,1004.24
2018-10-07T03:05:05.270Z,1004.24
2018-10-07T03:06:05.270Z,1004.30
2018-10-07T03:07:05.266Z,1004.29
2018-10-07T03:08:05.277Z,1004.27
2018-10-07T03:09:05.273Z,1004.26
2018-10-07T03:10:05.259Z,1004.27
2018-10-07T03:11:05.259Z,1004.28
2018-10-07T03:12:05.253Z,1004.28
2018-10-07T03:13:05.251Z,1004.29
2018-10-07T03:14:05.247Z,1004.32
2018-10-07T03:15:05.246Z,1004.34
2018-10-07T03:16:05.257Z,1004.30
2018-10-07T03:17:05.237Z,1004.31
2018-10-07T03:18:05.234Z,1004.28
2018-10-07T03:19:05.236Z,1004.30
2018-10-07T03:20:05.229Z,1004.29
2018-10-07T03:21:05.225Z,1004.30
2018-10-07T03:22:05.219Z,1004.34
2018-10-07T03:23:05.221Z,1004.33
2018-10-07T03:24:05.225Z,1004.34
2018-10-07T03:25:05.213Z,1004.32
2018-10-07T03:26:05.213Z,1004.34
2018-10-07T03:27:05.211Z,1004.36
2018-10-07T03:28:05.207Z,1004.42
2018-10-07T03:29:05.209Z,1004.44
2018-10-07T03:30:05.210Z,1004.65
2018-10-07T03:31:05.200Z,1004.72
2018-10-07T03:32:05.194Z,1004.71
2018-10-07T03:33:05.187Z,1004.61
2018-10-07T03:34:05.187Z,1004.63
2018-10-07T03:35:05.183Z,1004.74
2018-10-07T03:36:05.182Z,1004.73
2018-10-07T03:37:05.176Z,1004.77
2018-10-07T03:38:05.174Z,1004.76
2018-10-07T03:39:05.177Z,1004.80
2018-10-07T03:40:05.167Z,1004.78
2018-10-07T03:41:05.171Z,1004.80
2018-10-07T03:42:05.163Z,1004.78
2018-10-07T03:43:05.160Z,1004.75
2018-10-07T03:44:05.163Z,1004.75
2018-10-07T03:45:05.154Z,1004.74
2018-10-07T03:46:05.150Z,1004.75
2018-10-07T03:47:05.146Z,1004.78
2018-10-07T03:48:05.142Z,1004.77
2018-10-07T03:49:05.143Z,1004.73
2018-10-07T03:50:05.138Z,1004.76
2018-10-07T03:51:05.140Z,1004.76
2018-10-07T03:52:05.130Z,1004.83
2018-10-07T03:53:05.130Z,1004.84
2018-10-07T03:54:05.126Z,1004.84
2018-10-07T03:55:05.123Z,1004.94
2018-10-07T03:56:05.115Z,1004.89
2018-10-07T03:57:05.118Z,1004.96
2018-10-07T03:58:05.840Z,1004.98
2018-10-07T03:59:05.112Z,1004.99
2018-10-07T04:00:05.105Z,1004.94
2018-10-07T04:01:05.108Z,1004.96
2018-10-07T04:02:05.101Z,1004.98
2018-10-07T04:03:05.096Z,1004.99
2018-10-07T04:04:05.102Z,1004.98
2018-10-07T04:05:05.090Z,1004.98
2018-10-07T04:06:05.088Z,1004.96
2018-10-07T04:07:05.085Z,1004.97
2018-10-07T04:08:05.083Z,1004.95
2018-10-07T04:09:05.077Z,1004.95
2018-10-07T04:10:05.074Z,1004.98
2018-10-07T04:11:05.072Z,1004.94
2018-10-07T04:12:05.084Z,1004.94
2018-10-07T04:13:05.064Z,1004.94
2018-10-07T04:14:05.061Z,1004.92
2018-10-07T04:15:05.060Z,1004.94
2018-10-07T04:16:05.057Z,1004.96
2018-10-07T04:17:05.049Z,1004.96
2018-10-07T04:18:05.047Z,1005.01
2018-10-07T04:19:05.048Z,1005.02
2018-10-07T04:20:05.049Z,1005.04
2018-10-07T04:21:05.051Z,1005.08
2018-10-07T04:22:05.037Z,1005.02
2018-10-07T04:23:05.038Z,1005.02
2018-10-07T04:24:05.029Z,1005.03
2018-10-07T04:25:05.034Z,1005.03
2018-10-07T04:26:05.022Z,1005.04
2018-10-07T04:27:05.023Z,1005.06
2018-10-07T04:28:05.022Z,1005.08
2018-10-07T04:29:05.015Z,1005.07
2018-10-07T04:30:05.016Z,1005.07
2018-10-07T04:31:05.006Z,1005.12
2018-10-07T04:32:05.006Z,1005.04
2018-10-07T04:33:05.003Z,1005.06
2018-10-07T04:34:05.012Z,1005.04
2018-10-07T04:35:04.996Z,1005.06
2018-10-07T04:36:05.000Z,1005.06
2018-10-07T04:37:04.988Z,1005.04
2018-10-07T04:38:04.986Z,1005.02
2018-10-07T04:39:04.989Z,1005.06
2018-10-07T04:40:04.995Z,1005.03
2018-10-07T04:41:04.980Z,1005.09
2018-10-07T04:42:04.971Z,1005.06
2018-10-07T04:43:04.970Z,1005.02
2018-10-07T04:44:04.979Z,1005.05
2018-10-07T04:45:04.962Z,1005.04
2018-10-07T04:46:04.961Z,1005.07
2018-10-07T04:47:04.968Z,1005.13
2018-10-07T04:48:04.965Z,1005.15
2018-10-07T04:49:04.961Z,1005.16
2018-10-07T04:50:04.946Z,1005.21
2018-10-07T04:51:04.951Z,1005.24
2018-10-07T04:52:04.947Z,1005.32
2018-10-07T04:53:04.976Z,1005.31
2018-10-07T04:54:04.959Z,1005.33
2018-10-07T04:55:04.938Z,1005.33
2018-10-07T04:56:04.933Z,1005.34
2018-10-07T04:57:04.933Z,1005.35
2018-10-07T04:58:04.936Z,1005.34
2018-10-07T04:59:04.921Z,1005.37
2018-10-07T05:00:04.933Z,1005.39
2018-10-07T05:01:04.918Z,1005.40
2018-10-07T05:02:04.911Z,1005.41
2018-10-07T05:03:05.857Z,1005.47
2018-10-07T05:04:04.907Z,1005.48
2018-10-07T05:05:04.923Z,1005.46
2018-10-07T05:06:04.902Z,1005.45
2018-10-07T05:07:04.921Z,1005.51
2018-10-07T05:08:04.908Z,1005.56
2018-10-07T05:09:04.890Z,1005.58
2018-10-07T05:10:04.883Z,1005.63
2018-10-07T05:11:04.886Z,1005.64
2018-10-07T05:12:04.933Z,1005.70
2018-10-07T05:13:04.877Z,1005.69
2018-10-07T05:14:04.878Z,1005.74
2018-10-07T05:15:04.870Z,1005.79
2018-10-07T05:16:04.877Z,1005.82
2018-10-07T05:17:04.867Z,1005.83
2018-10-07T05:18:04.864Z,1005.82
2018-10-07T05:19:04.860Z,1005.78
2018-10-07T05:20:04.862Z,1005.79
2018-10-07T05:21:04.909Z,1005.73
2018-10-07T05:22:04.850Z,1005.82
2018-10-07T05:23:04.850Z,1005.80
2018-10-07T05:24:04.842Z,1005.82
2018-10-07T05:25:04.841Z,1005.84
2018-10-07T05:26:04.835Z,1005.91
2018-10-07T05:27:04.833Z,1005.91
2018-10-07T05:28:04.828Z,1005.95
2018-10-07T05:29:04.836Z,1005.98
2018-10-07T05:30:04.830Z,1006.01
2018-10-07T05:31:04.822Z,1006.02
2018-10-07T05:32:04.815Z,1006.07
2018-10-07T05:33:04.822Z,1006.14
2018-10-07T05:34:04.812Z,1006.12
2018-10-07T05:35:04.819Z,1006.11
2018-10-07T05:36:04.810Z,1006.13
2018-10-07T05:37:04.804Z,1006.17
2018-10-07T05:38:04.798Z,1006.14
2018-10-07T05:39:04.795Z,1006.20
2018-10-07T05:40:04.794Z,1006.22
2018-10-07T05:41:04.788Z,1006.21
2018-10-07T05:42:04.788Z,1006.30
2018-10-07T05:43:04.782Z,1006.31
2018-10-07T05:44:04.787Z,1006.35
2018-10-07T05:45:04.782Z,1006.41
2018-10-07T05:46:04.771Z,1006.38
2018-10-07T05:47:04.775Z,1006.39
2018-10-07T05:48:04.769Z,1006.38
2018-10-07T05:49:04.770Z,1006.40
2018-10-07T05:50:04.764Z,1006.38
2018-10-07T05:51:04.757Z,1006.45
2018-10-07T05:52:04.759Z,1006.54
2018-10-07T05:53:04.751Z,1006.56
2018-10-07T05:54:04.750Z,1006.58
2018-10-07T05:55:04.747Z,1006.56
2018-10-07T05:56:04.742Z,1006.55
2018-10-07T05:57:04.739Z,1006.59
2018-10-07T05:58:04.745Z,1006.59
2018-10-07T05:59:04.742Z,1006.60
2018-10-07T06:00:04.733Z,1006.56
2018-10-07T06:01:04.729Z,1006.59
2018-10-07T06:02:04.781Z,1006.60
2018-10-07T06:03:04.724Z,1006.61
2018-10-07T06:04:04.728Z,1006.66
2018-10-07T06:05:04.720Z,1006.72
2018-10-07T06:06:04.716Z,1006.71
2018-10-07T06:07:04.709Z,1006.73
2018-10-07T06:08:04.713Z,1006.76
2018-10-07T06:09:04.710Z,1006.84
2018-10-07T06:10:04.707Z,1006.89
2018-10-07T06:11:04.700Z,1006.91
2018-10-07T06:12:04.701Z,1006.87
2018-10-07T06:13:04.707Z,1006.81
2018-10-07T06:14:04.696Z,1006.83
2018-10-07T06:15:04.695Z,1006.88
2018-10-07T06:16:04.684Z,1006.92
2018-10-07T06:17:04.691Z,1007.00
2018-10-07T06:18:04.682Z,1007.01
2018-10-07T06:19:04.673Z,1007.08
2018-10-07T06:20:04.675Z,1007.10
2018-10-07T06:21:04.667Z,1007.19
2018-10-07T06:22:04.675Z,1007.16
2018-10-07T06:23:04.671Z,1007.20
2018-10-07T06:24:04.659Z,1007.23
2018-10-07T06:25:04.661Z,1007.26
2018-10-07T06:26:04.658Z,1007.32
2018-10-07T06:27:04.656Z,1007.29
2018-10-07T06:28:04.651Z,1007.27
2018-10-07T06:29:04.645Z,1007.35
2018-10-07T06:30:04.648Z,1007.37
2018-10-07T06:31:04.640Z,1007.36
2018-10-07T06:32:04.637Z,1007.39
2018-10-07T06:33:04.635Z,1007.39
2018-10-07T06:34:04.634Z,1007.46
2018-10-07T06:35:04.626Z,1007.55
2018-10-07T06:36:04.627Z,1007.58
2018-10-07T06:37:04.620Z,1007.57
2018-10-07T06:38:04.619Z,1007.62
2018-10-07T06:39:04.617Z,1007.60
2018-10-07T06:40:04.615Z,1007.61
2018-10-07T06:41:04.613Z,1007.60
2018-10-07T06:42:04.606Z,1007.57
2018-10-07T06:43:04.607Z,1007.62
2018-10-07T06:44:04.600Z,1007.64
2018-10-07T06:45:04.600Z,1007.69
2018-10-07T06:46:04.595Z,1007.71
2018-10-07T06:47:04.591Z,1007.76
2018-10-07T06:48:04.592Z,1007.75
2018-10-07T06:49:04.585Z,1007.76
2018-10-07T06:50:04.593Z,1007.82
2018-10-07T06:51:04.576Z,1007.80
2018-10-07T06:52:04.576Z,1007.90
2018-10-07T06:53:04.574Z,1007.95
2018-10-07T06:54:05.387Z,1008.00
2018-10-07T06:55:04.569Z,1008.00
2018-10-07T06:56:04.565Z,1007.98
2018-10-07T06:57:04.561Z,1007.92
2018-10-07T06:58:04.559Z,1007.92
2018-10-07T06:59:04.563Z,1007.96
2018-10-07T07:00:04.560Z,1007.97
2018-10-07T07:01:04.549Z,1007.99
2018-10-07T07:02:04.544Z,1008.00
2018-10-07T07:03:04.545Z,1008.00
2018-10-07T07:04:04.540Z,1008.01
2018-10-07T07:05:04.535Z,1008.11
2018-10-07T07:06:04.534Z,1008.17
2018-10-07T07:07:04.535Z,1008.19
2018-10-07T07:08:04.531Z,1008.25
2018-10-07T07:09:04.526Z,1008.32
2018-10-07T07:10:04.524Z,1008.40
2018-10-07T07:11:04.534Z,1008.36
2018-10-07T07:12:04.515Z,1008.40
2018-10-07T07:13:04.552Z,1008.42
2018-10-07T07:14:04.516Z,1008.46
2018-10-07T07:15:04.506Z,1008.58
2018-10-07T07:16:04.511Z,1008.59
2018-10-07T07:17:04.504Z,1008.58
2018-10-07T07:18:04.504Z,1008.61
2018-10-07T07:19:04.497Z,1008.66
2018-10-07T07:20:04.534Z,1008.71
2018-10-07T07:21:04.491Z,1008.75
2018-10-07T07:22:04.485Z,1008.75
2018-10-07T07:23:04.482Z,1008.80
2018-10-07T07:24:04.485Z,1008.84
2018-10-07T07:25:04.480Z,1008.90
2018-10-07T07:26:04.474Z,1008.89
2018-10-07T07:27:04.478Z,1008.93
2018-10-07T07:28:04.470Z,1008.97
2018-10-07T07:29:04.472Z,1008.92
2018-10-07T07:30:04.463Z,1009.00
2018-10-07T07:31:04.463Z,1009.00
2018-10-07T07:32:04.457Z,1009.08
2018-10-07T07:33:04.454Z,1009.01
2018-10-07T07:34:04.449Z,1009.04
2018-10-07T07:35:04.450Z,1009.09
2018-10-07T07:36:04.443Z,1009.14
2018-10-07T07:37:04.439Z,1009.19
2018-10-07T07:38:04.440Z,1009.22
2018-10-07T07:39:04.438Z,1009.24
2018-10-07T07:40:04.440Z,1009.30
2018-10-07T07:41:04.433Z,1009.32
2018-10-07T07:42:04.438Z,1009.30
2018-10-07T07:43:04.423Z,1009.38
2018-10-07T07:44:04.417Z,1009.51
2018-10-07T07:45:04.412Z,1009.47
2018-10-07T07:46:04.410Z,1009.47
2018-10-07T07:47:04.406Z,1009.46
2018-10-07T07:48:04.402Z,1009.59
2018-10-07T07:49:04.426Z,1009.59
2018-10-07T07:50:04.396Z,1009.64
2018-10-07T07:51:04.393Z,1009.65
2018-10-07T07:52:04.414Z,1009.68
2018-10-07T07:53:04.386Z,1009.73
2018-10-07T07:54:04.391Z,1009.76
2018-10-07T07:55:04.404Z,1009.77
2018-10-07T07:56:04.382Z,1009.77
2018-10-07T07:57:04.371Z,1009.82
2018-10-07T07:58:04.368Z,1009.80
2018-10-07T07:59:04.366Z,1009.88
2018-10-07T08:00:04.364Z,1009.87
2018-10-07T08:01:04.358Z,1009.94
2018-10-07T08:02:04.372Z,1009.96
2018-10-07T08:03:04.356Z,1009.90
2018-10-07T08:04:04.352Z,1009.94
2018-10-07T08:05:04.354Z,1010.00
2018-10-07T08:06:04.354Z,1010.01
2018-10-07T08:07:39.982Z,1010.07
2018-10-07T08:08:04.378Z,1010.03
2018-10-07T08:09:04.351Z,1010.10
2018-10-07T08:10:04.333Z,1010.14
2018-10-07T08:11:04.327Z,1010.11
2018-10-07T08:12:04.323Z,1010.14
2018-10-07T08:13:04.323Z,1010.20
2018-10-07T08:14:04.321Z,1010.20
2018-10-07T08:15:04.906Z,1010.18
2018-10-07T08:16:04.311Z,1010.24
2018-10-07T08:17:04.313Z,1010.24
2018-10-07T08:18:04.312Z,1010.24
2018-10-07T08:19:04.297Z,1010.30
2018-10-07T08:20:04.298Z,1010.37
2018-10-07T08:21:04.293Z,1010.39
2018-10-07T08:22:04.288Z,1010.42
2018-10-07T08:23:04.908Z,1010.43
2018-10-07T08:24:04.280Z,1010.47
2018-10-07T08:25:04.277Z,1010.52
2018-10-07T08:26:04.285Z,1010.51
2018-10-07T08:27:04.272Z,1010.48
2018-10-07T08:28:04.269Z,1010.55
2018-10-07T08:29:04.266Z,1010.55
2018-10-07T08:30:04.268Z,1010.62
2018-10-07T08:31:04.259Z,1010.60
2018-10-07T08:32:04.265Z,1010.61
2018-10-07T08:33:04.991Z,1010.66
2018-10-07T08:34:04.255Z,1010.69
2018-10-07T08:35:04.256Z,1010.75
2018-10-07T08:36:04.242Z,1010.75
2018-10-07T08:37:04.234Z,1010.81
2018-10-07T08:38:04.233Z,1010.80
2018-10-07T08:39:04.228Z,1010.75
2018-10-07T08:40:04.225Z,1010.88
2018-10-07T08:41:04.222Z,1010.84
2018-10-07T08:42:04.222Z,1010.89
2018-10-07T08:43:04.211Z,1010.85
2018-10-07T08:44:04.211Z,1010.94
2018-10-07T08:45:04.209Z,1010.86
2018-10-07T08:46:04.200Z,1011.02
2018-10-07T08:47:04.200Z,1010.97
2018-10-07T08:48:04.200Z,1011.05
2018-10-07T08:49:04.198Z,1011.04
2018-10-07T08:50:04.191Z,1011.05
2018-10-07T08:51:04.189Z,1011.07
2018-10-07T08:52:04.186Z,1011.08
2018-10-07T08:53:04.175Z,1011.06
2018-10-07T08:54:04.174Z,1011.12
2018-10-07T08:55:04.166Z,1011.07
2018-10-07T08:56:04.264Z,1011.14
2018-10-07T08:57:04.165Z,1011.19
2018-10-07T08:58:04.159Z,1011.20
2018-10-07T08:59:04.155Z,1011.26
2018-10-07T09:00:04.150Z,1011.27
2018-10-07T09:01:04.154Z,1011.23
2018-10-07T09:02:04.215Z,1011.29
2018-10-07T09:03:04.142Z,1011.28
2018-10-07T09:04:04.135Z,1011.34
2018-10-07T09:05:04.128Z,1011.26
2018-10-07T09:06:04.122Z,1011.27
2018-10-07T09:07:04.125Z,1011.34
2018-10-07T09:08:04.124Z,1011.33
2018-10-07T09:09:04.115Z,1011.42
2018-10-07T09:10:04.120Z,1011.42
2018-10-07T09:11:04.119Z,1011.47
2018-10-07T09:12:04.106Z,1011.52
2018-10-07T09:13:04.109Z,1011.58
2018-10-07T09:14:04.101Z,1011.65
2018-10-07T09:15:04.101Z,1011.65
2018-10-07T09:16:04.099Z,1011.69
2018-10-07T09:17:04.085Z,1011.80
2018-10-07T09:18:04.090Z,1011.80
2018-10-07T09:19:04.084Z,1011.73
2018-10-07T09:20:04.079Z,1011.74
2018-10-07T09:21:04.141Z,1011.73
2018-10-07T09:22:04.075Z,1011.82
2018-10-07T09:23:04.069Z,1011.80
2018-10-07T09:24:04.065Z,1011.86
2018-10-07T09:25:04.057Z,1011.93
2018-10-07T09:26:04.055Z,1011.90
2018-10-07T09:27:04.105Z,1011.92
2018-10-07T09:28:04.049Z,1011.87
2018-10-07T09:29:04.042Z,1011.93
2018-10-07T09:30:04.037Z,1011.97
2018-10-07T09:31:04.046Z,1012.03
2018-10-07T09:32:04.040Z,1012.07
2018-10-07T09:33:04.030Z,1012.10
2018-10-07T09:34:04.025Z,1012.15
2018-10-07T09:35:04.017Z,1012.11
2018-10-07T09:36:04.016Z,1012.17
2018-10-07T09:37:04.009Z,1012.19
2018-10-07T09:38:04.009Z,1012.19
2018-10-07T09:39:04.006Z,1012.15
2018-10-07T09:40:04.001Z,1012.18
2018-10-07T09:41:04.000Z,1012.19
2018-10-07T09:42:03.993Z,1012.20
2018-10-07T09:43:03.989Z,1012.24
2018-10-07T09:44:03.982Z,1012.30
2018-10-07T09:45:03.977Z,1012.30
2018-10-07T09:46:03.979Z,1012.28
2018-10-07T09:47:03.990Z,1012.27
2018-10-07T09:48:03.971Z,1012.30
2018-10-07T09:49:03.964Z,1012.32
2018-10-07T09:50:03.998Z,1012.30
2018-10-07T09:51:03.953Z,1012.41
2018-10-07T09:52:03.952Z,1012.36
2018-10-07T09:53:03.944Z,1012.36
2018-10-07T09:54:03.944Z,1012.37
2018-10-07T09:55:03.940Z,1012.46
2018-10-07T09:56:03.936Z,1012.45
2018-10-07T09:57:03.928Z,1012.53
2018-10-07T09:58:03.980Z,1012.49
2018-10-07T09:59:04.436Z,1012.51
2018-10-07T10:00:03.916Z,1012.53
2018-10-07T10:01:03.915Z,1012.53
2018-10-07T10:02:03.907Z,1012.53
2018-10-07T10:03:03.910Z,1012.54
2018-10-07T10:04:03.959Z,1012.55
2018-10-07T10:05:03.897Z,1012.55
2018-10-07T10:06:03.898Z,1012.52
2018-10-07T10:07:03.965Z,1012.54
2018-10-07T10:08:03.890Z,1012.58
2018-10-07T10:09:03.881Z,1012.60
2018-10-07T10:10:03.874Z,1012.60
2018-10-07T10:11:03.947Z,1012.64
2018-10-07T10:12:03.865Z,1012.71
2018-10-07T10:13:03.860Z,1012.69
2018-10-07T10:14:03.890Z,1012.69
2018-10-07T10:15:03.856Z,1012.84
2018-10-07T10:16:03.851Z,1012.83
2018-10-07T10:17:03.845Z,1012.81
2018-10-07T10:18:03.848Z,1012.85
2018-10-07T10:19:03.845Z,1012.86
2018-10-07T10:20:03.837Z,1012.84
2018-10-07T10:21:03.831Z,1012.88
2018-10-07T10:22:03.829Z,1012.93
2018-10-07T10:23:03.821Z,1012.96
2018-10-07T10:24:03.821Z,1013.01
2018-10-07T10:25:03.819Z,1012.98
2018-10-07T10:26:03.808Z,1013.03
2018-10-07T10:27:03.806Z,1013.08
2018-10-07T10:28:03.809Z,1013.13
2018-10-07T10:29:03.795Z,1013.16
2018-10-07T10:30:03.822Z,1013.20
2018-10-07T10:31:03.788Z,1013.23
2018-10-07T10:32:03.784Z,1013.29
2018-10-07T10:33:03.781Z,1013.28
2018-10-07T10:34:04.443Z,1013.36
2018-10-07T10:35:03.775Z,1013.33
2018-10-07T10:36:03.768Z,1013.35
2018-10-07T10:37:03.768Z,1013.39
2018-10-07T10:38:03.757Z,1013.32
2018-10-07T10:39:03.755Z,1013.40
2018-10-07T10:40:03.845Z,1013.36
2018-10-07T10:41:03.748Z,1013.36
2018-10-07T10:42:03.749Z,1013.31
2018-10-07T10:43:03.739Z,1013.36
2018-10-07T10:44:03.734Z,1013.37
2018-10-07T10:45:03.730Z,1013.36
2018-10-07T10:46:03.730Z,1013.37
2018-10-07T10:47:03.721Z,1013.39
2018-10-07T10:48:03.785Z,1013.36
2018-10-07T10:49:03.712Z,1013.39
2018-10-07T10:50:03.710Z,1013.42
2018-10-07T10:51:03.704Z,1013.34
2018-10-07T10:52:03.703Z,1013.41
2018-10-07T10:53:03.818Z,1013.44
2018-10-07T10:54:03.692Z,1013.46
2018-10-07T10:55:03.710Z,1013.45
2018-10-07T10:56:03.683Z,1013.43
2018-10-07T10:57:03.680Z,1013.39
2018-10-07T10:58:03.673Z,1013.46
2018-10-07T10:59:03.675Z,1013.48
2018-10-07T11:00:03.672Z,1013.53
2018-10-07T11:01:03.731Z,1013.47
2018-10-07T11:02:03.664Z,1013.50
2018-10-07T11:03:03.662Z,1013.51
2018-10-07T11:04:04.523Z,1013.52
2018-10-07T11:05:03.652Z,1013.53
2018-10-07T11:06:03.650Z,1013.51
2018-10-07T11:07:04.528Z,1013.58
2018-10-07T11:08:03.630Z,1013.56
2018-10-07T11:09:03.643Z,1013.58
2018-10-07T11:10:03.626Z,1013.55
2018-10-07T11:11:03.624Z,1013.55
2018-10-07T11:12:03.622Z,1013.57
2018-10-07T11:13:03.616Z,1013.59
2018-10-07T11:14:03.611Z,1013.59
2018-10-07T11:15:03.615Z,1013.66
2018-10-07T11:16:03.602Z,1013.65
2018-10-07T11:17:03.602Z,1013.61
2018-10-07T11:18:03.597Z,1013.57
2018-10-07T11:19:03.595Z,1013.60
2018-10-07T11:20:03.587Z,1013.66
2018-10-07T11:21:03.579Z,1013.77
2018-10-07T11:22:03.582Z,1013.73
2018-10-07T11:23:03.575Z,1013.69
2018-10-07T11:24:03.587Z,1013.69
2018-10-07T11:25:03.590Z,1013.72
2018-10-07T11:26:03.616Z,1013.70
2018-10-07T11:27:03.562Z,1013.73
2018-10-07T11:28:03.553Z,1013.73
2018-10-07T11:29:03.558Z,1013.79
2018-10-07T11:30:04.458Z,1013.83
2018-10-07T11:31:03.548Z,1013.84
2018-10-07T11:32:03.543Z,1013.84
2018-10-07T11:33:03.537Z,1013.88
2018-10-07T11:34:03.547Z,1013.83
2018-10-07T11:35:03.531Z,1013.84
2018-10-07T11:36:03.524Z,1013.90
2018-10-07T11:37:03.521Z,1013.95
2018-10-07T11:38:03.515Z,1013.89
2018-10-07T11:39:03.512Z,1013.85
2018-10-07T11:40:03.508Z,1013.90
2018-10-07T11:41:03.511Z,1013.85
2018-10-07T11:42:03.501Z,1013.90
2018-10-07T11:43:03.497Z,1013.91
2018-10-07T11:44:04.466Z,1013.94
2018-10-07T11:45:03.498Z,1013.95
2018-10-07T11:46:03.486Z,1013.93
2018-10-07T11:47:03.481Z,1013.93
2018-10-07T11:48:03.477Z,1013.92
2018-10-07T11:49:03.473Z,1013.94
2018-10-07T11:50:03.473Z,1013.98
2018-10-07T11:51:03.464Z,1013.94
2018-10-07T11:52:03.464Z,1013.97
2018-10-07T11:53:03.470Z,1013.99
2018-10-07T11:54:03.458Z,1014.00
2018-10-07T11:55:04.050Z,1013.90
2018-10-07T11:56:03.448Z,1013.93
2018-10-07T11:57:03.442Z,1013.99
2018-10-07T11:58:03.447Z,1014.03
2018-10-07T11:59:03.435Z,1013.93
2018-10-07T12:00:03.436Z,1013.98
2018-10-07T12:01:03.428Z,1013.97
2018-10-07T12:02:03.446Z,1013.95
2018-10-07T12:03:03.427Z,1014.06
2018-10-07T12:04:03.419Z,1014.04
2018-10-07T12:05:03.418Z,1014.09